Aérodrome :
LOGIN :

S'inscrire | Disclaimer

   EN    FR    IT 

 










Légende :    VFR   VFR Marginal   IFR   IFR Intensif   IFR Très Intensif
Visi : 
Plafond : 
>= 8 km
>= 3000ft
5 à 8 km
1000 à 3000 ft
1500m à 5 km
500 à 1000 ft
800 à 1500m
200 à 500 ft
< 800m
< 200 ft
Symboles :   Orages  Brouillard  Fortes neiges  Fortes précipitations  Vent > 20 kt
SIGMETs :   Divers  Orages  Givrage  Turbulence  Onde Orograph.  Cendres Volcan.






- Altitude de l'aérodrome : 1247 ft
- Code IATA : PRG


LKPR - Praha Ruzyne

DERNIER METAR :
  • 090800Z 28005KT 250V320 CAVOK 14/M02 Q1023 NOSIG

METARs EXPIRÉS :
  • 090730Z 24004KT CAVOK 12/M02 Q1022 NOSIG
  • 090700Z 23004KT CAVOK 11/M03 Q1022 NOSIG
  • 090630Z 25004KT CAVOK 09/M04 Q1022 NOSIG
  • 090600Z 24005KT CAVOK 08/M04 Q1022 NOSIG
  • 090530Z 25005KT CAVOK 06/M04 Q1022 NOSIG

TAF TAF LKPR
Valide du 09 à 06h jusqu'au 10 à 12h UTC


090500Z 0906/1012 21006KT CAVOK
BECMG 0906/0909 35008KT
TEMPO 0915/0918 36010G20KT 9999 SCT040



MET'MAP, la Météo Aéronautique d'un coup d'oeil ! - Copyright ORBIFLY Décembre 2007 - Disclaimer

ORBIFLY MET'MAP TEAM :

Programmation & Développement : Alexandra Zaïnal
Sur une idée originale de : Baudouin d'Aumeries
Assistance à la programmation : Marc-Olivier Méhu
Soutien technique & logistique : Manuel Goepfert

Contact : metmap@orbifly.com




SOURCES & CREDITS :

   NOAA